Lebanon, Indiana
Current Conditions -  °F | °C
As of 4:55 PM on Tuesday 25 Nov 2014 (Local Time) from KTYQ Reporting Station
Overcast Overcast  
Wind Chill: 20°   Ceiling: 1400
Heat Index: 28°   Visibility: 10mi
Dew Point: 22°   Wind: 8mph
Humidity: 76%   Direction: 270°W
Pressure: 30.16"   Gusts: NA
Location:  40.05°N, 86.47°W
Report Text: KTYQ 252155Z AUTO 27007KT 10SM OVC014 M02/M06 A3016 RMK AO2 T10211058
Loading
Personal Weather Stations






























Interactive Weather Map New forecast layout! Learn more

10-Day Weather Forecast

Advertisements
Track Severe Weather on mobile